Time;durP1;ratioP1;P1;durP2;ratioP2;P2;SDS_P1;SDS_P2;PMS_P1;PMS_P2;Temp;Humidity;BMP_temperature;BMP_pressure;BME280_temperature;BME280_humidity;BME280_pressure;Samples;Min_cycle;Max_cycle;Signal;HPM_P1;HPM_P2
2021/03/29 00:01:08;;;;;;;28.07;7.07;;;;;;;6.18;100.00;102715.19;5268033;28;20077;-80
2021/03/29 00:03:38;;;;;;;23.40;6.43;;;;;;;6.14;100.00;102719.84;5269117;28;20432;-80
2021/03/29 00:06:09;;;;;;;20.50;6.78;;;;;;;6.13;100.00;102712.78;5269214;28;20035;-80
2021/03/29 00:08:40;;;;;;;23.27;6.15;;;;;;;6.15;100.00;102720.69;5269346;28;20020;-80
2021/03/29 00:11:12;;;;;;;26.55;6.18;;;;;;;6.16;100.00;102723.25;5269212;28;20020;-81
2021/03/29 00:13:43;;;;;;;20.77;6.60;;;;;;;6.20;100.00;102716.78;5259567;28;20032;-80
2021/03/29 00:16:15;;;;;;;20.85;5.60;;;;;;;6.22;100.00;102720.25;5268144;28;20088;-80
2021/03/29 00:18:46;;;;;;;18.85;6.30;;;;;;;6.22;100.00;102714.03;5268660;28;20027;-80
2021/03/29 00:21:17;;;;;;;16.13;5.75;;;;;;;6.26;100.00;102707.56;5267957;28;20031;-79
2021/03/29 00:23:48;;;;;;;23.48;6.32;;;;;;;6.32;100.00;102709.00;5267613;28;20069;-79
2021/03/29 00:26:19;;;;;;;16.38;6.40;;;;;;;6.39;100.00;102713.88;5267481;28;20128;-79
2021/03/29 00:28:49;;;;;;;18.67;6.10;;;;;;;6.46;100.00;102709.00;5267920;28;20425;-80
2021/03/29 00:31:19;;;;;;;22.50;6.47;;;;;;;6.53;100.00;102701.53;5267352;28;20031;-80
2021/03/29 00:33:52;;;;;;;22.20;6.50;;;;;;;6.52;100.00;102699.78;5267433;28;20082;-80
2021/03/29 00:36:24;;;;;;;25.90;6.13;;;;;;;6.48;100.00;102697.31;5267675;28;20164;-80
2021/03/29 00:38:56;;;;;;;16.92;6.05;;;;;;;6.45;100.00;102696.66;5266995;28;20032;-81
2021/03/29 00:41:27;;;;;;;21.70;6.28;;;;;;;6.47;100.00;102703.56;5266523;28;20031;-80
2021/03/29 00:43:58;;;;;;;21.08;7.05;;;;;;;6.53;100.00;102706.84;5267054;28;20027;-80
2021/03/29 00:46:29;;;;;;;28.83;6.30;;;;;;;6.51;100.00;102700.72;5271837;28;20016;-80
2021/03/29 00:49:01;;;;;;;23.15;6.00;;;;;;;6.53;100.00;102693.53;5271022;28;20035;-80
2021/03/29 00:51:36;;;;;;;17.23;5.60;;;;;;;6.49;100.00;102687.50;5271525;28;20055;-80
2021/03/29 00:54:08;;;;;;;23.30;5.85;;;;;;;6.45;100.00;102688.66;5271052;28;20027;-80
2021/03/29 00:56:40;;;;;;;27.98;6.30;;;;;;;6.49;100.00;102688.38;5272132;28;20523;-80
2021/03/29 00:59:11;;;;;;;20.08;5.95;;;;;;;6.51;100.00;102692.75;5272664;28;20385;-79
2021/03/29 01:01:47;;;;;;;21.00;5.70;;;;;;;6.67;100.00;102696.16;5270773;28;20032;-80
2021/03/29 01:04:18;;;;;;;23.95;5.05;;;;;;;6.66;100.00;102692.63;5273418;28;20074;-80
2021/03/29 01:06:51;;;;;;;18.67;5.22;;;;;;;6.64;100.00;102693.69;5270870;28;20028;-80
2021/03/29 01:09:31;;;;;;;14.52;4.70;;;;;;;6.57;100.00;102695.03;5271709;28;20028;-80
2021/03/29 01:12:08;;;;;;;19.40;5.03;;;;;;;6.51;100.00;102688.25;5269947;28;20020;-79
2021/03/29 01:14:42;;;;;;;15.93;4.70;;;;;;;6.46;100.00;102701.03;5273122;28;20032;-79
2021/03/29 01:17:18;;;;;;;14.60;5.30;;;;;;;6.38;100.00;102704.16;5272897;28;20012;-78
2021/03/29 01:20:02;;;;;;;16.33;5.18;;;;;;;6.36;100.00;102710.53;5259802;28;20028;-79
2021/03/29 01:22:53;;;;;;;16.33;4.32;;;;;;;6.32;100.00;102715.19;5271555;28;20122;-79
2021/03/29 01:25:35;;;;;;;15.95;7.22;;;;;;;6.31;100.00;102721.47;5272702;28;20020;-79
2021/03/29 01:28:21;;;;;;;20.25;5.53;;;;;;;6.26;100.00;102714.72;5263652;28;20050;-79
2021/03/29 01:30:57;;;;;;;14.95;4.70;;;;;;;6.22;100.00;102712.25;5271783;28;20420;-79
2021/03/29 01:33:29;;;;;;;18.10;5.03;;;;;;;6.16;100.00;102714.41;5273520;28;20505;-79
2021/03/29 01:36:01;;;;;;;19.90;5.95;;;;;;;6.08;100.00;102711.34;5272393;28;20028;-79
2021/03/29 01:38:32;;;;;;;17.30;5.00;;;;;;;5.97;100.00;102710.19;5274286;28;20139;-79
2021/03/29 01:41:03;;;;;;;13.63;4.88;;;;;;;5.95;100.00;102717.41;5274018;28;20125;-79
2021/03/29 01:43:35;;;;;;;16.85;4.60;;;;;;;5.91;100.00;102709.63;5273086;28;20030;-80
2021/03/29 01:46:07;;;;;;;16.50;3.88;;;;;;;5.96;100.00;102707.59;5270983;28;20051;-80
2021/03/29 01:48:38;;;;;;;29.33;5.55;;;;;;;5.99;100.00;102714.56;5271485;28;20080;-80
2021/03/29 01:51:10;;;;;;;16.98;4.38;;;;;;;6.05;100.00;102716.84;5271387;28;20477;-80
2021/03/29 01:53:44;;;;;;;11.90;4.45;;;;;;;6.07;100.00;102712.28;5273836;28;20032;-80
2021/03/29 01:56:14;;;;;;;14.30;3.75;;;;;;;6.05;100.00;102707.06;5271190;28;20030;-79
2021/03/29 01:58:46;;;;;;;8.05;4.07;;;;;;;5.98;100.00;102711.03;5270816;28;20028;-80
2021/03/29 02:01:17;;;;;;;16.45;4.22;;;;;;;5.98;100.00;102716.38;5269784;28;20035;-81
2021/03/29 02:03:49;;;;;;;15.38;4.43;;;;;;;5.98;100.00;102705.72;5270283;28;20019;-81
2021/03/29 02:06:20;;;;;;;10.32;3.55;;;;;;;6.08;100.00;102706.88;5270627;28;20473;-80
2021/03/29 02:08:51;;;;;;;17.23;4.85;;;;;;;6.26;100.00;102709.38;5270252;28;20693;-80
2021/03/29 02:11:23;;;;;;;12.25;3.53;;;;;;;6.61;100.00;102694.72;5269593;28;20023;-80
2021/03/29 02:13:55;;;;;;;11.32;3.42;;;;;;;6.92;100.00;102706.13;5259772;28;20081;-80
2021/03/29 02:16:28;;;;;;;10.88;3.90;;;;;;;6.94;100.00;102707.78;5269967;28;20024;-80
2021/03/29 02:19:02;;;;;;;13.95;2.75;;;;;;;7.11;100.00;102697.81;5268071;28;20107;-80
2021/03/29 02:21:36;;;;;;;14.55;3.30;;;;;;;7.25;100.00;102701.31;5270036;28;20412;-80
2021/03/29 02:24:09;;;;;;;11.38;3.13;;;;;;;7.45;100.00;102697.34;5270907;28;20026;-81
2021/03/29 02:26:43;;;;;;;9.45;3.08;;;;;;;7.69;100.00;102704.72;5274134;28;20081;-80
2021/03/29 02:29:18;;;;;;;9.80;2.90;;;;;;;7.82;100.00;102692.22;5273722;28;20354;-81
2021/03/29 02:31:49;;;;;;;8.50;2.80;;;;;;;7.87;100.00;102692.75;5273913;28;20120;-80
2021/03/29 02:34:20;;;;;;;9.02;2.88;;;;;;;8.14;100.00;102705.22;5274192;28;20020;-80
2021/03/29 02:36:52;;;;;;;11.77;2.53;;;;;;;8.42;100.00;102698.84;5274830;28;20389;-80
2021/03/29 02:39:23;;;;;;;10.60;2.65;;;;;;;8.40;100.00;102704.31;5274942;28;20107;-80
2021/03/29 02:41:54;;;;;;;9.48;2.55;;;;;;;8.38;100.00;102702.69;5274622;28;20047;-81
2021/03/29 02:44:24;;;;;;;9.45;2.97;;;;;;;8.45;100.00;102696.81;5272171;28;20020;-80
2021/03/29 02:46:55;;;;;;;8.45;2.55;;;;;;;8.40;100.00;102701.63;5271660;28;20042;-80
2021/03/29 02:49:25;;;;;;;9.60;2.92;;;;;;;8.43;100.00;102688.03;5272104;28;20060;-80
2021/03/29 02:51:58;;;;;;;9.57;2.95;;;;;;;8.47;100.00;102697.56;5272274;28;20035;-80
2021/03/29 02:54:30;;;;;;;11.65;2.70;;;;;;;8.46;100.00;102689.66;5272016;28;20042;-80
2021/03/29 02:57:01;;;;;;;14.38;2.80;;;;;;;8.37;100.00;102699.16;5274442;28;20585;-80
2021/03/29 02:59:33;;;;;;;11.70;2.75;;;;;;;8.38;100.00;102702.69;5273734;28;20055;-80
2021/03/29 03:02:03;;;;;;;13.27;2.60;;;;;;;8.36;100.00;102699.25;5273598;28;20028;-79
2021/03/29 03:04:34;;;;;;;8.63;2.83;;;;;;;8.25;100.00;102706.19;5270007;28;20024;-79
2021/03/29 03:07:05;;;;;;;9.35;2.28;;;;;;;8.24;100.00;102703.66;5262018;28;20027;-80
2021/03/29 03:09:36;;;;;;;8.43;2.42;;;;;;;8.26;100.00;102701.69;5272646;28;20020;-79
2021/03/29 03:12:09;;;;;;;10.65;2.53;;;;;;;8.31;100.00;102710.25;5272402;28;20024;-79
2021/03/29 03:14:39;;;;;;;8.48;2.47;;;;;;;8.45;100.00;102699.50;5275551;28;20034;-79
2021/03/29 03:17:10;;;;;;;9.98;3.05;;;;;;;8.43;100.00;102706.75;5252653;28;20032;-78
2021/03/29 03:19:41;;;;;;;13.82;2.83;;;;;;;8.38;100.00;102700.88;5270054;28;20081;-79
2021/03/29 03:22:12;;;;;;;9.90;2.90;;;;;;;8.38;100.00;102706.22;5270455;28;20054;-79
2021/03/29 03:24:43;;;;;;;11.65;3.75;;;;;;;8.30;100.00;102697.88;5270465;28;20107;-79
2021/03/29 03:27:13;;;;;;;8.05;2.75;;;;;;;8.22;100.00;102694.84;5269372;28;20154;-79
2021/03/29 03:29:43;;;;;;;9.88;2.70;;;;;;;8.20;100.00;102702.97;5269437;28;20057;-78
2021/03/29 03:32:16;;;;;;;7.57;2.85;;;;;;;8.20;100.00;102702.97;5269384;28;20081;-79
2021/03/29 03:34:47;;;;;;;13.07;2.55;;;;;;;8.23;100.00;102699.22;5269337;28;20599;-79
2021/03/29 03:37:20;;;;;;;10.50;2.80;;;;;;;8.12;100.00;102701.78;5269037;28;20099;-79
2021/03/29 03:39:50;;;;;;;6.90;2.45;;;;;;;7.93;100.00;102703.06;5269038;28;20032;-79
2021/03/29 03:42:21;;;;;;;12.98;3.55;;;;;;;7.64;100.00;102707.69;5267784;28;20504;-79
2021/03/29 03:44:53;;;;;;;18.45;3.50;;;;;;;7.30;100.00;102703.69;5246005;28;617817;-78
2021/03/29 03:47:25;;;;;;;11.07;3.53;;;;;;;7.03;100.00;102708.13;5269121;28;20039;-79
2021/03/29 03:49:57;;;;;;;7.57;3.33;;;;;;;6.79;100.00;102711.41;5269839;28;20024;-80
2021/03/29 03:52:28;;;;;;;11.60;3.60;;;;;;;6.52;100.00;102715.78;5268215;28;20051;-79
2021/03/29 03:54:59;;;;;;;16.00;3.45;;;;;;;6.24;100.00;102712.16;5269471;28;20311;-80
2021/03/29 03:57:30;;;;;;;18.98;3.47;;;;;;;6.09;100.00;102718.41;5269463;28;20027;-79
2021/03/29 04:00:00;;;;;;;9.38;3.67;;;;;;;5.92;100.00;102714.03;5269175;28;20027;-79
2021/03/29 04:02:31;;;;;;;13.43;3.47;;;;;;;5.79;100.00;102718.38;5268845;28;20034;-79
2021/03/29 04:05:04;;;;;;;12.40;3.10;;;;;;;5.66;100.00;102715.53;5262362;28;20025;-79
2021/03/29 04:07:35;;;;;;;9.30;3.00;;;;;;;5.65;100.00;102713.84;5261516;28;20405;-79
2021/03/29 04:10:15;;;;;;;14.48;4.22;;;;;;;5.65;100.00;102713.84;5268752;28;20107;-79
2021/03/29 04:12:52;;;;;;;12.73;3.58;;;;;;;5.61;100.00;102720.28;5258241;28;20074;-78
2021/03/29 04:15:23;;;;;;;12.00;3.63;;;;;;;5.54;100.00;102722.44;5266537;28;20032;-79
2021/03/29 04:17:53;;;;;;;15.70;3.67;;;;;;;5.54;100.00;102727.75;5267912;28;20511;-79
2021/03/29 04:20:23;;;;;;;11.60;3.65;;;;;;;5.50;100.00;102731.53;5268005;28;20392;-79
2021/03/29 04:22:54;;;;;;;14.05;4.00;;;;;;;5.49;100.00;102723.66;5268012;28;20477;-79
2021/03/29 04:25:24;;;;;;;16.55;3.92;;;;;;;5.42;100.00;102723.13;5267660;28;20464;-79
2021/03/29 04:27:55;;;;;;;16.38;4.20;;;;;;;5.36;100.00;102728.81;5267485;28;20023;-80
2021/03/29 04:30:26;;;;;;;17.02;4.47;;;;;;;5.35;100.00;102724.44;5267363;28;20035;-79
2021/03/29 04:32:57;;;;;;;21.95;5.28;;;;;;;5.33;100.00;102721.00;5267494;28;20032;-80
2021/03/29 04:35:28;;;;;;;11.25;3.78;;;;;;;5.42;100.00;102732.00;5268854;28;20024;-80
2021/03/29 04:37:58;;;;;;;16.52;4.47;;;;;;;5.38;100.00;102737.56;5269363;28;20078;-80
2021/03/29 04:40:29;;;;;;;12.90;4.40;;;;;;;5.32;100.00;102732.56;5270199;28;20045;-79
2021/03/29 04:43:00;;;;;;;21.63;5.07;;;;;;;5.28;100.00;102742.56;5271141;28;20028;-79
2021/03/29 04:45:30;;;;;;;12.65;4.38;;;;;;;5.20;100.00;102734.13;5270769;28;20481;-80
2021/03/29 04:48:01;;;;;;;11.02;4.38;;;;;;;5.14;100.00;102735.34;5270631;28;20051;-79
2021/03/29 04:50:32;;;;;;;25.20;5.03;;;;;;;5.10;100.00;102733.78;5270505;28;20038;-79
2021/03/29 04:53:02;;;;;;;18.13;4.57;;;;;;;5.01;100.00;102741.41;5271118;28;20103;-78
2021/03/29 04:55:32;;;;;;;19.23;4.57;;;;;;;4.99;100.00;102737.97;5270751;28;20024;-79
2021/03/29 04:58:03;;;;;;;11.98;4.28;;;;;;;4.97;100.00;102742.50;5271206;28;20058;-79
2021/03/29 05:00:33;;;;;;;13.32;4.97;;;;;;;4.90;100.00;102742.84;5270202;28;20381;-80
2021/03/29 05:03:04;;;;;;;16.23;4.25;;;;;;;4.85;100.00;102744.91;5269849;28;20028;-79
2021/03/29 05:05:34;;;;;;;17.83;5.32;;;;;;;4.80;100.00;102746.94;5270657;28;20021;-79
2021/03/29 05:08:05;;;;;;;13.30;5.55;;;;;;;4.73;100.00;102744.72;5271096;28;20092;-79
2021/03/29 05:10:39;;;;;;;16.35;4.90;;;;;;;4.60;100.00;102742.69;5270079;28;20059;-80
2021/03/29 05:13:10;;;;;;;20.17;4.70;;;;;;;4.48;100.00;102753.13;5260105;28;20465;-80
2021/03/29 05:15:40;;;;;;;17.20;4.25;;;;;;;4.35;100.00;102748.44;5269468;28;20028;-80
2021/03/29 05:18:12;;;;;;;13.85;4.50;;;;;;;4.28;100.00;102741.72;5269339;28;20047;-80
2021/03/29 05:20:43;;;;;;;13.23;4.55;;;;;;;4.36;100.00;102742.19;5269224;28;20032;-80
2021/03/29 05:23:13;;;;;;;17.70;4.15;;;;;;;4.27;100.00;102742.69;5269218;28;20500;-80
2021/03/29 05:25:44;;;;;;;17.98;4.47;;;;;;;4.22;100.00;102744.72;5269144;28;20028;-80
2021/03/29 05:28:15;;;;;;;10.25;4.22;;;;;;;4.21;100.00;102750.94;5269580;28;20092;-80
2021/03/29 05:30:45;;;;;;;15.60;4.93;;;;;;;4.35;100.00;102752.91;5268572;28;20031;-80
2021/03/29 05:33:16;;;;;;;16.67;4.78;;;;;;;4.31;100.00;102757.50;5269385;28;20024;-79
2021/03/29 05:35:47;;;;;;;11.50;4.47;;;;;;;4.35;100.00;102753.75;5269171;28;20102;-80
2021/03/29 05:38:17;;;;;;;14.98;5.10;;;;;;;4.47;100.00;102762.91;5269192;28;20031;-80
2021/03/29 05:40:51;;;;;;;13.55;4.30;;;;;;;4.65;100.00;102761.91;5269588;28;20028;-80
2021/03/29 05:43:22;;;;;;;16.15;4.50;;;;;;;4.87;100.00;102766.97;5270693;28;20787;-80
2021/03/29 05:45:52;;;;;;;19.88;5.15;;;;;;;5.10;100.00;102764.84;5270117;28;20020;-79
2021/03/29 05:48:23;;;;;;;18.33;5.63;;;;;;;5.37;100.00;102776.66;5270229;28;20032;-80
2021/03/29 05:50:53;;;;;;;19.42;5.38;;;;;;;5.65;100.00;102775.94;5269398;28;20036;-80
2021/03/29 05:53:24;;;;;;;15.90;4.93;;;;;;;6.00;100.00;102785.53;5266631;28;20101;-80
2021/03/29 05:55:55;;;;;;;15.02;4.57;;;;;;;6.30;100.00;102785.56;5270398;28;20107;-79
2021/03/29 06:00:56;;;;;;;14.95;4.72;;;;;;;6.72;100.00;102792.75;5268564;28;20532;-79
2021/03/29 06:03:39;;;;;;;21.33;4.90;;;;;;;6.71;100.00;102797.22;5266999;28;20110;-79
2021/03/29 06:06:20;;;;;;;15.30;4.60;;;;;;;6.60;100.00;102801.50;5266269;28;20020;-79
2021/03/29 06:08:52;;;;;;;12.50;4.70;;;;;;;6.55;100.00;102806.28;5267143;28;20385;-80
2021/03/29 06:11:26;;;;;;;13.65;4.43;;;;;;;6.42;100.00;102799.00;5267408;28;20139;-78
2021/03/29 06:14:18;;;;;;;29.23;5.30;;;;;;;6.44;100.00;102801.59;5268486;28;20024;-79
2021/03/29 06:16:58;;;;;;;19.35;4.68;;;;;;;6.42;100.00;102801.66;5256165;28;20063;-79
2021/03/29 06:19:43;;;;;;;16.48;4.70;;;;;;;6.50;100.00;102803.88;5268038;28;20047;-81
2021/03/29 06:22:19;;;;;;;13.40;4.32;;;;;;;6.58;100.00;102793.63;5266519;28;20055;-79
2021/03/29 06:24:53;;;;;;;21.67;4.53;;;;;;;6.70;100.00;102792.84;5267376;28;20489;-79
2021/03/29 06:27:27;;;;;;;11.07;4.20;;;;;;;6.80;100.00;102795.81;5267929;28;20039;-79
2021/03/29 06:30:25;;;;;;;11.02;4.28;;;;;;;6.93;100.00;102795.94;5268077;28;20111;-77
2021/03/29 06:33:02;;;;;;;20.10;4.47;;;;;;;7.09;100.00;102791.34;5253692;28;20028;-78
2021/03/29 06:35:37;;;;;;;15.93;4.47;;;;;;;7.25;100.00;102793.91;5266995;28;20485;-78
2021/03/29 06:38:22;;;;;;;11.05;3.90;;;;;;;7.38;100.00;102793.97;5268034;28;20077;-80
2021/03/29 06:40:53;;;;;;;;;;;;;;;7.56;100.00;102794.63;5271768;28;20119;-79
2021/03/29 06:43:28;;;;;;;17.40;3.78;;;;;;;7.71;100.00;102801.63;5269975;28;20343;-79
2021/03/29 06:46:03;;;;;;;14.98;4.18;;;;;;;7.85;100.00;102804.25;5270143;28;20028;-79
2021/03/29 06:48:36;;;;;;;11.73;3.85;;;;;;;7.99;100.00;102804.22;5270486;28;20016;-79
2021/03/29 06:51:15;;;;;;;11.50;4.13;;;;;;;8.17;100.00;102811.94;5270132;28;20481;-78
2021/03/29 06:53:53;;;;;;;18.90;4.30;;;;;;;8.31;100.00;102815.41;5269774;28;20393;-77
2021/03/29 06:56:26;;;;;;;14.68;3.90;;;;;;;8.47;100.00;102809.91;5269181;28;20035;-78
2021/03/29 06:59:10;;;;;;;15.25;3.50;;;;;;;8.64;100.00;102811.44;5270298;28;20081;-76
2021/03/29 07:01:50;;;;;;;19.90;5.32;;;;;;;8.78;100.00;102822.03;5271528;28;20024;-78
2021/03/29 07:04:21;;;;;;;14.77;4.47;;;;;;;8.90;100.00;102822.16;5273314;28;20109;-79
2021/03/29 07:06:53;;;;;;;19.77;4.78;;;;;;;9.08;100.00;102827.06;5260088;28;20028;-78
2021/03/29 07:09:24;;;;;;;14.50;4.30;;;;;;;9.20;100.00;102827.16;5273663;28;20106;-79
2021/03/29 07:11:56;;;;;;;16.40;4.68;;;;;;;9.31;100.00;102828.09;5269955;28;20430;-79
2021/03/29 07:14:27;;;;;;;12.57;3.70;;;;;;;9.52;100.00;102827.53;5271424;28;20044;-77
2021/03/29 07:16:59;;;;;;;19.77;4.60;;;;;;;9.66;100.00;102831.88;5272934;28;20028;-79
2021/03/29 07:19:30;;;;;;;15.32;3.78;;;;;;;9.76;100.00;102849.00;5271831;28;20081;-79
2021/03/29 07:22:02;;;;;;;12.65;4.07;;;;;;;9.91;100.00;102847.88;5269128;28;20020;-79
2021/03/29 07:24:32;;;;;;;11.15;3.70;;;;;;;10.00;100.00;102855.25;5269448;28;20111;-79
2021/03/29 07:27:05;;;;;;;15.32;4.50;;;;;;;10.11;100.00;102849.94;5269638;28;20099;-79
2021/03/29 07:29:46;;;;;;;9.65;3.65;;;;;;;10.30;100.00;102859.31;5270447;28;20405;-76
2021/03/29 07:32:29;;;;;;;11.27;3.85;;;;;;;10.41;100.00;102859.38;5270585;28;20020;-78
2021/03/29 07:35:00;;;;;;;21.08;4.30;;;;;;;10.61;100.00;102858.72;5270984;28;20039;-78
2021/03/29 07:37:33;;;;;;;20.40;4.20;;;;;;;10.73;100.00;102850.66;5270842;28;20165;-81
2021/03/29 07:40:08;;;;;;;12.13;4.18;;;;;;;10.92;100.00;102850.09;5271305;28;20436;-78
2021/03/29 07:42:39;;;;;;;;;;;;;;;11.02;100.00;102851.94;5269764;28;20031;-79
2021/03/29 07:45:14;;;;;;;15.85;4.07;;;;;;;11.27;100.00;102860.75;5269502;28;19916;-79
2021/03/29 07:47:54;;;;;;;10.60;3.63;;;;;;;11.40;100.00;102856.97;5269574;28;20032;-78
2021/03/29 07:50:24;;;;;;;12.27;3.42;;;;;;;11.55;100.00;102848.66;5268037;28;20035;-80
2021/03/29 07:52:57;;;;;;;19.13;3.80;;;;;;;11.74;100.00;102853.38;5268988;28;20028;-77
2021/03/29 07:55:29;;;;;;;15.13;3.50;;;;;;;11.85;100.00;102846.19;5269867;28;20020;-80
2021/03/29 07:58:02;;;;;;;17.77;3.50;;;;;;;11.91;100.00;102852.91;5268720;28;20016;-80
2021/03/29 08:00:32;;;;;;;10.07;3.35;;;;;;;12.07;100.00;102850.66;5269279;28;20063;-79
2021/03/29 08:03:11;;;;;;;12.68;3.03;;;;;;;12.23;100.00;102854.75;5269463;28;20109;-79
2021/03/29 08:05:44;;;;;;;13.77;2.95;;;;;;;12.47;100.00;102858.06;5269846;28;20087;-78
2021/03/29 08:08:33;;;;;;;13.95;2.83;;;;;;;12.57;100.00;102858.16;5269257;28;20062;-79
2021/03/29 08:11:10;;;;;;;16.30;3.55;;;;;;;12.69;100.00;102857.09;5268469;28;20031;-79
2021/03/29 08:13:49;;;;;;;11.90;3.15;;;;;;;12.83;100.00;102859.44;5268526;28;20028;-79
2021/03/29 08:16:20;;;;;;;10.40;3.03;;;;;;;12.93;100.00;102873.00;5268853;28;20020;-79
2021/03/29 08:19:14;;;;;;;12.98;2.88;;;;;;;13.06;100.00;102870.09;5266769;28;20103;-84
2021/03/29 08:21:48;;;;;;;9.52;3.00;;;;;;;13.21;100.00;102875.03;5255238;28;20016;-80
2021/03/29 08:24:21;;;;;;;8.85;2.40;;;;;;;13.50;97.38;102876.13;5267522;28;20449;-78
2021/03/29 08:26:54;;;;;;;10.13;2.40;;;;;;;13.43;84.01;102879.38;5270504;28;20032;-80
2021/03/29 08:29:28;;;;;;;13.60;3.17;;;;;;;13.51;80.05;102880.56;5274951;28;20028;-81
2021/03/29 08:32:06;;;;;;;10.23;2.78;;;;;;;13.57;84.67;102877.31;5273741;28;20426;-78
2021/03/29 08:34:40;;;;;;;15.50;3.22;;;;;;;13.69;77.19;102876.19;5274929;28;20039;-82
2021/03/29 08:37:14;;;;;;;15.98;2.80;;;;;;;13.78;77.15;102885.31;5273845;28;20054;-79
2021/03/29 08:39:47;;;;;;;13.93;3.17;;;;;;;13.94;74.85;102896.44;5274092;28;20020;-79
2021/03/29 08:42:20;;;;;;;12.48;2.97;;;;;;;14.07;62.45;102886.25;5272957;28;20388;-80
2021/03/29 08:44:51;;;;;;;11.90;3.45;;;;;;;14.12;69.71;102894.78;5275277;28;20023;-81
2021/03/29 08:47:25;;;;;;;11.70;3.17;;;;;;;14.18;59.55;102899.59;5275124;28;20103;-79
2021/03/29 08:50:06;;;;;;;10.55;2.53;;;;;;;14.33;60.74;102899.19;5275793;28;20106;-80
2021/03/29 08:52:50;;;;;;;4.82;2.20;;;;;;;14.39;57.11;102910.28;5274595;28;20425;-81
2021/03/29 08:55:24;;;;;;;17.48;2.78;;;;;;;14.48;56.80;102905.91;5274252;28;20028;-79
2021/03/29 08:57:56;;;;;;;7.32;2.38;;;;;;;14.60;57.75;102914.72;5274192;28;20649;-81
2021/03/29 09:00:29;;;;;;;9.98;2.58;;;;;;;14.47;52.46;102917.69;5274831;28;20039;-81
2021/03/29 09:03:00;;;;;;;17.27;2.72;;;;;;;14.54;50.27;102921.53;5274813;28;20031;-80
2021/03/29 09:05:31;;;;;;;7.57;2.30;;;;;;;14.64;51.43;102922.41;5265817;28;20032;-81
2021/03/29 09:08:10;;;;;;;7.97;2.95;;;;;;;14.77;51.85;102919.41;5269698;28;20035;-82
2021/03/29 09:10:43;;;;;;;8.50;2.50;;;;;;;14.90;52.69;102919.09;5275373;28;20043;-79
2021/03/29 09:13:16;;;;;;;10.38;2.35;;;;;;;14.95;53.81;102922.22;5274767;28;20028;-80
2021/03/29 09:15:49;;;;;;;12.02;3.58;;;;;;;15.08;50.68;102930.03;5254456;28;20453;-80
2021/03/29 09:18:24;;;;;;;10.68;2.80;;;;;;;15.14;52.06;102938.41;5271548;28;20103;-80
2021/03/29 09:20:54;;;;;;;9.52;3.00;;;;;;;15.24;51.35;102933.84;5275098;28;20054;-81
2021/03/29 09:23:32;;;;;;;10.13;2.58;;;;;;;15.20;49.83;102936.97;5273877;28;20024;-82
2021/03/29 09:26:04;;;;;;;11.95;3.20;;;;;;;15.24;50.05;102943.78;5273210;28;20473;-81
2021/03/29 09:28:38;;;;;;;7.72;2.67;;;;;;;15.29;48.11;102939.66;5273947;28;20039;-81
2021/03/29 09:31:09;;;;;;;7.15;2.42;;;;;;;15.41;49.29;102953.00;5274484;28;20589;-81
2021/03/29 09:33:41;;;;;;;14.60;2.92;;;;;;;15.61;49.99;102945.66;5265213;28;20093;-81
2021/03/29 09:36:14;;;;;;;14.43;2.67;;;;;;;15.63;47.90;102952.69;5271494;28;20073;-80
2021/03/29 09:38:50;;;;;;;8.55;2.38;;;;;;;15.74;47.41;102952.47;5273787;28;20374;-81
2021/03/29 09:41:29;;;;;;;10.00;2.55;;;;;;;15.78;48.85;102953.88;5259198;28;20027;-81
2021/03/29 09:44:06;;;;;;;7.35;2.63;;;;;;;15.84;47.88;102957.00;5272386;28;20043;-79
2021/03/29 09:46:37;;;;;;;8.98;2.42;;;;;;;16.08;48.82;102957.31;5272984;28;20376;-81
2021/03/29 09:49:10;;;;;;;5.07;2.42;;;;;;;16.13;45.45;102959.56;5272058;28;20024;-79
2021/03/29 09:51:43;;;;;;;10.25;2.72;;;;;;;16.10;44.72;102949.03;5272231;28;20088;-82
2021/03/29 09:54:23;;;;;;;5.10;2.15;;;;;;;16.34;44.84;102948.44;5271308;28;20035;-80
2021/03/29 09:56:56;;;;;;;9.15;2.92;;;;;;;16.33;44.16;102949.47;5271081;28;20035;-81
2021/03/29 09:59:29;;;;;;;11.80;2.75;;;;;;;16.22;44.70;102955.94;5270570;28;20129;-81
2021/03/29 10:02:00;;;;;;;9.98;2.83;;;;;;;16.27;46.41;102950.94;5271403;28;20385;-81
2021/03/29 10:04:30;;;;;;;9.02;2.25;;;;;;;16.48;43.95;102950.63;5271652;28;20100;-81
2021/03/29 10:07:01;;;;;;;8.07;2.47;;;;;;;16.51;43.29;102955.72;5271643;28;20089;-80
2021/03/29 10:09:34;;;;;;;10.18;3.13;;;;;;;16.54;45.73;102961.69;5271278;28;20024;-81
2021/03/29 10:12:06;;;;;;;15.63;3.03;;;;;;;16.57;46.46;102971.38;5271378;28;20047;-81
2021/03/29 10:14:38;;;;;;;9.13;2.47;;;;;;;16.87;47.67;102972.00;5273751;28;20099;-81
2021/03/29 10:17:17;;;;;;;12.82;2.92;;;;;;;16.90;47.03;102972.56;5276887;28;20053;-81
2021/03/29 10:19:48;;;;;;;11.75;2.83;;;;;;;17.05;43.31;102970.97;5274759;28;20035;-82
2021/03/29 10:22:19;;;;;;;12.48;3.22;;;;;;;17.09;43.28;102961.53;5276365;28;20024;-81
2021/03/29 10:24:58;;;;;;;7.15;2.25;;;;;;;17.23;42.29;102962.81;5274492;28;20062;-81
2021/03/29 10:27:40;;;;;;;8.02;2.70;;;;;;;17.21;42.01;102975.66;5277077;28;20083;-82
2021/03/29 10:30:19;;;;;;;8.85;2.95;;;;;;;17.38;42.94;102967.66;5277980;28;20039;-81
2021/03/29 10:32:52;;;;;;;13.30;3.15;;;;;;;17.39;42.12;102974.78;5278323;28;20027;-81
2021/03/29 10:35:24;;;;;;;7.15;2.55;;;;;;;17.49;43.32;102979.09;5273697;28;20028;-81
2021/03/29 10:37:57;;;;;;;10.02;2.97;;;;;;;17.58;40.42;102974.56;5275031;28;20055;-83
2021/03/29 10:40:28;;;;;;;7.63;2.17;;;;;;;17.71;40.28;102979.53;5275080;28;20024;-80
2021/03/29 10:42:58;;;;;;;8.55;2.42;;;;;;;17.69;39.71;102977.00;5275263;28;20492;-79
2021/03/29 10:45:29;;;;;;;12.93;2.58;;;;;;;17.72;38.95;102965.84;5273989;28;20023;-81
2021/03/29 10:47:59;;;;;;;9.30;2.60;;;;;;;17.83;39.00;102973.72;5254018;28;20020;-80
2021/03/29 10:50:30;;;;;;;11.18;2.60;;;;;;;17.85;39.38;102970.81;5271176;28;20016;-80
2021/03/29 10:53:01;;;;;;;8.43;2.80;;;;;;;18.02;39.07;102971.72;5263545;28;20319;-81
2021/03/29 10:55:32;;;;;;;11.63;2.58;;;;;;;18.21;38.94;102971.47;5275651;28;20035;-80
2021/03/29 10:58:02;;;;;;;8.18;2.63;;;;;;;18.26;37.55;102977.25;5274501;28;20031;-80
2021/03/29 11:00:33;;;;;;;11.07;2.33;;;;;;;18.37;41.11;102965.22;5274792;28;20028;-80
2021/03/29 11:03:03;;;;;;;8.13;2.90;;;;;;;18.51;38.09;102974.59;5274706;28;20036;-82
2021/03/29 11:05:34;;;;;;;4.60;1.92;;;;;;;18.64;38.21;102964.94;5256313;28;20034;-81
2021/03/29 11:08:05;;;;;;;5.03;2.47;;;;;;;18.58;36.27;102967.50;5275729;28;20035;-81
2021/03/29 11:10:35;;;;;;;12.52;2.08;;;;;;;18.75;37.49;102955.63;5275299;28;20024;-81
2021/03/29 11:13:06;;;;;;;9.80;2.30;;;;;;;18.84;34.41;102956.50;5274387;28;20027;-81
2021/03/29 11:15:36;;;;;;;10.48;2.53;;;;;;;18.86;34.99;102952.56;5274285;28;20028;-81
2021/03/29 11:18:08;;;;;;;4.97;2.50;;;;;;;19.00;36.82;102955.63;5273776;28;20032;-82
2021/03/29 11:20:38;;;;;;;9.18;2.42;;;;;;;19.01;36.49;102962.75;5273248;28;20028;-82
2021/03/29 11:23:08;;;;;;;7.30;2.58;;;;;;;18.94;37.30;102953.59;5274112;28;20028;-82
2021/03/29 11:25:39;;;;;;;8.88;2.45;;;;;;;19.21;35.72;102958.66;5273246;28;20056;-82
2021/03/29 11:28:09;;;;;;;8.73;1.92;;;;;;;19.26;32.11;102958.16;5272933;28;20028;-82
2021/03/29 11:30:40;;;;;;;4.68;1.73;;;;;;;19.23;33.08;102959.34;5273487;28;20035;-81
2021/03/29 11:33:10;;;;;;;7.45;2.20;;;;;;;19.08;33.27;102961.06;5273846;28;20089;-82
2021/03/29 11:35:41;;;;;;;11.98;2.40;;;;;;;19.08;34.70;102961.06;5272248;28;20485;-82
2021/03/29 11:38:12;;;;;;;7.65;2.28;;;;;;;19.20;35.26;102959.69;5271577;28;20024;-82
2021/03/29 11:40:42;;;;;;;5.30;2.30;;;;;;;19.39;35.18;102951.16;5273300;28;20050;-82
2021/03/29 11:43:13;;;;;;;10.40;2.67;;;;;;;19.29;33.61;102952.38;5273367;28;20024;-82
2021/03/29 11:45:43;;;;;;;5.57;2.20;;;;;;;19.21;33.97;102950.50;5269449;28;20018;-82
2021/03/29 11:48:14;;;;;;;7.90;2.60;;;;;;;19.38;33.24;102951.34;5269154;28;20396;-81